sensor_id;sensor_type;location;lat;lon;timestamp;temperature;humidity
21646;DHT22;10984;45.712;4.800;2023-05-24T00:02:23;17.50;1.00
21646;DHT22;10984;45.712;4.800;2023-05-24T00:04:51;17.60;1.00
21646;DHT22;10984;45.712;4.800;2023-05-24T00:07:18;17.60;1.00
21646;DHT22;10984;45.712;4.800;2023-05-24T00:09:43;17.60;1.00
21646;DHT22;10984;45.712;4.800;2023-05-24T00:12:09;17.60;1.00
21646;DHT22;10984;45.712;4.800;2023-05-24T00:14:35;17.60;1.00
21646;DHT22;10984;45.712;4.800;2023-05-24T00:17:00;17.60;1.00
21646;DHT22;10984;45.712;4.800;2023-05-24T00:19:26;17.50;1.00
21646;DHT22;10984;45.712;4.800;2023-05-24T00:21:52;17.50;1.00
21646;DHT22;10984;45.712;4.800;2023-05-24T00:24:17;17.50;1.00
21646;DHT22;10984;45.712;4.800;2023-05-24T00:26:43;17.40;1.00
21646;DHT22;10984;45.712;4.800;2023-05-24T00:29:09;17.40;1.00
21646;DHT22;10984;45.712;4.800;2023-05-24T00:31:34;17.40;1.00
21646;DHT22;10984;45.712;4.800;2023-05-24T00:34:00;17.50;1.00
21646;DHT22;10984;45.712;4.800;2023-05-24T00:36:26;17.50;1.00
21646;DHT22;10984;45.712;4.800;2023-05-24T00:38:51;17.50;1.00
21646;DHT22;10984;45.712;4.800;2023-05-24T00:41:18;17.50;1.00
21646;DHT22;10984;45.712;4.800;2023-05-24T00:43:44;17.40;1.00
21646;DHT22;10984;45.712;4.800;2023-05-24T00:46:29;17.40;1.00
21646;DHT22;10984;45.712;4.800;2023-05-24T00:48:55;17.50;1.00
21646;DHT22;10984;45.712;4.800;2023-05-24T00:51:22;17.30;1.00
21646;DHT22;10984;45.712;4.800;2023-05-24T00:53:48;17.40;1.00
21646;DHT22;10984;45.712;4.800;2023-05-24T00:56:15;17.40;1.00
21646;DHT22;10984;45.712;4.800;2023-05-24T00:58:42;17.40;1.00
21646;DHT22;10984;45.712;4.800;2023-05-24T01:01:08;17.30;1.00
21646;DHT22;10984;45.712;4.800;2023-05-24T01:03:34;17.30;1.00
21646;DHT22;10984;45.712;4.800;2023-05-24T01:06:02;17.20;1.00
21646;DHT22;10984;45.712;4.800;2023-05-24T01:20:33;17.20;1.00
21646;DHT22;10984;45.712;4.800;2023-05-24T01:28:51;17.20;1.00
21646;DHT22;10984;45.712;4.800;2023-05-24T01:31:18;17.00;1.00
21646;DHT22;10984;45.712;4.800;2023-05-24T01:33:44;17.00;2.10
21646;DHT22;10984;45.712;4.800;2023-05-24T01:36:10;17.00;6.30
21646;DHT22;10984;45.712;4.800;2023-05-24T01:38:37;16.90;7.50
21646;DHT22;10984;45.712;4.800;2023-05-24T01:53:17;16.50;37.60
21646;DHT22;10984;45.712;4.800;2023-05-24T01:55:47;16.50;43.50
21646;DHT22;10984;45.712;4.800;2023-05-24T01:58:13;16.40;50.80
21646;DHT22;10984;45.712;4.800;2023-05-24T02:00:40;16.30;60.50
21646;DHT22;10984;45.712;4.800;2023-05-24T02:03:08;16.30;65.20
21646;DHT22;10984;45.712;4.800;2023-05-24T02:05:33;16.20;73.50
21646;DHT22;10984;45.712;4.800;2023-05-24T02:07:59;16.10;81.50
21646;DHT22;10984;45.712;4.800;2023-05-24T02:10:25;16.00;90.10
21646;DHT22;10984;45.712;4.800;2023-05-24T02:12:50;16.00;92.30
21646;DHT22;10984;45.712;4.800;2023-05-24T02:15:16;16.00;94.50
21646;DHT22;10984;45.712;4.800;2023-05-24T02:17:42;16.00;95.20
21646;DHT22;10984;45.712;4.800;2023-05-24T02:20:08;16.00;94.00
21646;DHT22;10984;45.712;4.800;2023-05-24T02:22:34;16.00;94.10
21646;DHT22;10984;45.712;4.800;2023-05-24T02:25:00;15.90;95.90
21646;DHT22;10984;45.712;4.800;2023-05-24T02:27:25;15.90;97.50
21646;DHT22;10984;45.712;4.800;2023-05-24T02:29:51;15.80;99.90
21646;DHT22;10984;45.712;4.800;2023-05-24T02:32:17;15.80;99.90
21646;DHT22;10984;45.712;4.800;2023-05-24T02:34:43;15.80;99.90
21646;DHT22;10984;45.712;4.800;2023-05-24T02:37:09;15.80;99.90
21646;DHT22;10984;45.712;4.800;2023-05-24T02:39:39;15.70;99.90
21646;DHT22;10984;45.712;4.800;2023-05-24T02:42:06;15.70;99.90
21646;DHT22;10984;45.712;4.800;2023-05-24T02:44:33;15.70;99.90
21646;DHT22;10984;45.712;4.800;2023-05-24T02:46:58;15.60;99.90
21646;DHT22;10984;45.712;4.800;2023-05-24T02:49:24;15.60;99.90
21646;DHT22;10984;45.712;4.800;2023-05-24T02:51:50;15.60;99.90
21646;DHT22;10984;45.712;4.800;2023-05-24T02:54:16;15.60;99.90
21646;DHT22;10984;45.712;4.800;2023-05-24T02:56:42;15.60;99.90
21646;DHT22;10984;45.712;4.800;2023-05-24T02:59:07;15.50;99.90
21646;DHT22;10984;45.712;4.800;2023-05-24T03:01:33;15.50;99.90
21646;DHT22;10984;45.712;4.800;2023-05-24T03:03:59;15.50;99.90
21646;DHT22;10984;45.712;4.800;2023-05-24T03:06:24;15.40;99.90
21646;DHT22;10984;45.712;4.800;2023-05-24T03:08:50;15.30;99.90
21646;DHT22;10984;45.712;4.800;2023-05-24T03:11:16;15.20;99.90
21646;DHT22;10984;45.712;4.800;2023-05-24T03:13:46;15.20;99.90
21646;DHT22;10984;45.712;4.800;2023-05-24T03:16:12;15.20;99.90
21646;DHT22;10984;45.712;4.800;2023-05-24T03:18:38;15.30;99.90
21646;DHT22;10984;45.712;4.800;2023-05-24T03:21:04;15.30;99.90
21646;DHT22;10984;45.712;4.800;2023-05-24T03:23:29;15.30;99.90
21646;DHT22;10984;45.712;4.800;2023-05-24T03:25:55;15.40;99.90
21646;DHT22;10984;45.712;4.800;2023-05-24T03:28:21;15.30;99.90
21646;DHT22;10984;45.712;4.800;2023-05-24T03:30:47;15.50;99.90
21646;DHT22;10984;45.712;4.800;2023-05-24T03:33:13;15.50;99.90
21646;DHT22;10984;45.712;4.800;2023-05-24T03:35:38;15.50;99.90
21646;DHT22;10984;45.712;4.800;2023-05-24T03:38:04;15.60;99.90
21646;DHT22;10984;45.712;4.800;2023-05-24T03:40:30;15.60;99.90
21646;DHT22;10984;45.712;4.800;2023-05-24T03:42:58;15.50;99.90
21646;DHT22;10984;45.712;4.800;2023-05-24T03:45:25;15.60;99.90
21646;DHT22;10984;45.712;4.800;2023-05-24T03:47:50;15.70;99.90
21646;DHT22;10984;45.712;4.800;2023-05-24T03:50:16;15.70;96.00
21646;DHT22;10984;45.712;4.800;2023-05-24T03:52:41;15.70;96.40
21646;DHT22;10984;45.712;4.800;2023-05-24T03:55:07;15.60;97.30
21646;DHT22;10984;45.712;4.800;2023-05-24T03:57:33;15.70;92.80
21646;DHT22;10984;45.712;4.800;2023-05-24T03:59:59;15.60;96.50
21646;DHT22;10984;45.712;4.800;2023-05-24T04:02:25;15.60;90.10
21646;DHT22;10984;45.712;4.800;2023-05-24T04:04:51;15.70;86.40
21646;DHT22;10984;45.712;4.800;2023-05-24T04:07:16;15.70;87.00
21646;DHT22;10984;45.712;4.800;2023-05-24T04:09:42;15.70;86.20
21646;DHT22;10984;45.712;4.800;2023-05-24T04:12:08;15.70;78.70
21646;DHT22;10984;45.712;4.800;2023-05-24T04:14:33;15.70;75.70
21646;DHT22;10984;45.712;4.800;2023-05-24T04:16:59;15.60;67.90
21646;DHT22;10984;45.712;4.800;2023-05-24T04:19:28;15.70;64.00
21646;DHT22;10984;45.712;4.800;2023-05-24T04:21:54;15.70;54.60
21646;DHT22;10984;45.712;4.800;2023-05-24T04:24:19;15.70;51.10
21646;DHT22;10984;45.712;4.800;2023-05-24T04:26:45;15.60;51.50
21646;DHT22;10984;45.712;4.800;2023-05-24T04:29:12;15.60;46.80
21646;DHT22;10984;45.712;4.800;2023-05-24T04:31:40;15.60;47.60
21646;DHT22;10984;45.712;4.800;2023-05-24T04:34:07;15.60;50.40
21646;DHT22;10984;45.712;4.800;2023-05-24T04:36:34;15.60;43.70
21646;DHT22;10984;45.712;4.800;2023-05-24T04:39:00;15.60;39.20
21646;DHT22;10984;45.712;4.800;2023-05-24T04:41:29;15.60;40.60
21646;DHT22;10984;45.712;4.800;2023-05-24T04:43:56;15.60;44.70
21646;DHT22;10984;45.712;4.800;2023-05-24T04:46:24;15.70;35.60
21646;DHT22;10984;45.712;4.800;2023-05-24T04:48:50;15.80;31.90
21646;DHT22;10984;45.712;4.800;2023-05-24T04:51:16;15.80;23.90
21646;DHT22;10984;45.712;4.800;2023-05-24T04:53:41;15.80;20.90
21646;DHT22;10984;45.712;4.800;2023-05-24T04:56:07;15.90;16.70
21646;DHT22;10984;45.712;4.800;2023-05-24T04:58:33;15.80;19.20
21646;DHT22;10984;45.712;4.800;2023-05-24T05:00:59;15.90;16.10
21646;DHT22;10984;45.712;4.800;2023-05-24T05:03:26;16.00;16.10
21646;DHT22;10984;45.712;4.800;2023-05-24T05:05:52;16.00;15.20
21646;DHT22;10984;45.712;4.800;2023-05-24T05:08:17;16.10;10.10
21646;DHT22;10984;45.712;4.800;2023-05-24T05:10:44;16.10;9.70
21646;DHT22;10984;45.712;4.800;2023-05-24T05:13:10;16.10;3.70
21646;DHT22;10984;45.712;4.800;2023-05-24T05:15:36;16.20;1.00
21646;DHT22;10984;45.712;4.800;2023-05-24T05:18:02;16.30;1.00
21646;DHT22;10984;45.712;4.800;2023-05-24T05:20:27;16.40;1.00
21646;DHT22;10984;45.712;4.800;2023-05-24T05:22:53;16.50;1.00
21646;DHT22;10984;45.712;4.800;2023-05-24T05:25:19;16.40;1.00
21646;DHT22;10984;45.712;4.800;2023-05-24T05:27:44;16.60;1.00
21646;DHT22;10984;45.712;4.800;2023-05-24T05:30:10;16.60;1.00
21646;DHT22;10984;45.712;4.800;2023-05-24T05:32:36;16.70;1.00
21646;DHT22;10984;45.712;4.800;2023-05-24T05:35:02;16.80;1.00
21646;DHT22;10984;45.712;4.800;2023-05-24T05:37:28;16.80;1.00
21646;DHT22;10984;45.712;4.800;2023-05-24T05:39:55;17.00;1.00
21646;DHT22;10984;45.712;4.800;2023-05-24T05:42:21;16.90;1.00
21646;DHT22;10984;45.712;4.800;2023-05-24T05:44:46;17.10;1.00
21646;DHT22;10984;45.712;4.800;2023-05-24T05:47:12;17.10;1.00
21646;DHT22;10984;45.712;4.800;2023-05-24T05:49:38;17.10;1.00
21646;DHT22;10984;45.712;4.800;2023-05-24T05:52:04;17.10;1.00
21646;DHT22;10984;45.712;4.800;2023-05-24T05:54:30;17.10;1.00
21646;DHT22;10984;45.712;4.800;2023-05-24T05:56:56;17.00;1.00
21646;DHT22;10984;45.712;4.800;2023-05-24T05:59:22;17.00;1.00
21646;DHT22;10984;45.712;4.800;2023-05-24T06:01:47;17.00;1.00
21646;DHT22;10984;45.712;4.800;2023-05-24T06:04:16;17.00;1.00
21646;DHT22;10984;45.712;4.800;2023-05-24T06:06:42;16.90;1.00
21646;DHT22;10984;45.712;4.800;2023-05-24T06:09:26;17.00;1.00
21646;DHT22;10984;45.712;4.800;2023-05-24T06:11:52;16.60;1.00
21646;DHT22;10984;45.712;4.800;2023-05-24T06:14:17;16.60;1.00
21646;DHT22;10984;45.712;4.800;2023-05-24T06:16:44;16.70;1.00
21646;DHT22;10984;45.712;4.800;2023-05-24T06:19:11;16.70;1.00
21646;DHT22;10984;45.712;4.800;2023-05-24T06:21:37;16.80;1.00
21646;DHT22;10984;45.712;4.800;2023-05-24T06:24:03;16.80;1.00
21646;DHT22;10984;45.712;4.800;2023-05-24T06:26:29;16.90;1.00
21646;DHT22;10984;45.712;4.800;2023-05-24T06:28:54;16.90;1.00
21646;DHT22;10984;45.712;4.800;2023-05-24T06:31:20;16.90;1.00
21646;DHT22;10984;45.712;4.800;2023-05-24T06:33:46;16.90;1.00
21646;DHT22;10984;45.712;4.800;2023-05-24T06:36:11;17.00;1.00
21646;DHT22;10984;45.712;4.800;2023-05-24T06:38:37;16.90;1.00
21646;DHT22;10984;45.712;4.800;2023-05-24T06:41:03;17.20;1.00
21646;DHT22;10984;45.712;4.800;2023-05-24T06:43:29;17.70;1.00
21646;DHT22;10984;45.712;4.800;2023-05-24T06:45:55;18.40;1.00
21646;DHT22;10984;45.712;4.800;2023-05-24T06:48:20;19.00;1.00
21646;DHT22;10984;45.712;4.800;2023-05-24T06:50:46;19.50;1.00
21646;DHT22;10984;45.712;4.800;2023-05-24T06:53:12;19.50;1.00
21646;DHT22;10984;45.712;4.800;2023-05-24T06:55:37;19.20;1.00
21646;DHT22;10984;45.712;4.800;2023-05-24T06:58:03;19.40;1.00
21646;DHT22;10984;45.712;4.800;2023-05-24T07:00:29;19.30;1.00
21646;DHT22;10984;45.712;4.800;2023-05-24T07:02:55;19.30;1.00
21646;DHT22;10984;45.712;4.800;2023-05-24T07:05:21;19.20;1.00
21646;DHT22;10984;45.712;4.800;2023-05-24T07:07:47;19.40;1.00
21646;DHT22;10984;45.712;4.800;2023-05-24T07:10:13;19.40;1.00
21646;DHT22;10984;45.712;4.800;2023-05-24T07:12:39;19.40;1.00
21646;DHT22;10984;45.712;4.800;2023-05-24T07:15:05;19.70;1.00
21646;DHT22;10984;45.712;4.800;2023-05-24T07:17:31;20.10;1.00
21646;DHT22;10984;45.712;4.800;2023-05-24T07:19:58;20.40;1.00
21646;DHT22;10984;45.712;4.800;2023-05-24T07:22:24;20.50;1.00
21646;DHT22;10984;45.712;4.800;2023-05-24T07:24:53;21.20;1.00
21646;DHT22;10984;45.712;4.800;2023-05-24T07:27:18;21.60;1.00
21646;DHT22;10984;45.712;4.800;2023-05-24T07:29:44;21.80;1.00
21646;DHT22;10984;45.712;4.800;2023-05-24T07:32:10;21.40;1.00
21646;DHT22;10984;45.712;4.800;2023-05-24T07:34:36;20.80;1.00
21646;DHT22;10984;45.712;4.800;2023-05-24T07:37:03;20.60;1.00
21646;DHT22;10984;45.712;4.800;2023-05-24T07:39:29;20.60;1.00
21646;DHT22;10984;45.712;4.800;2023-05-24T07:41:55;20.40;1.00
21646;DHT22;10984;45.712;4.800;2023-05-24T07:44:21;21.00;1.00
21646;DHT22;10984;45.712;4.800;2023-05-24T07:46:46;21.20;1.00
21646;DHT22;10984;45.712;4.800;2023-05-24T07:49:12;21.90;1.00
21646;DHT22;10984;45.712;4.800;2023-05-24T07:51:38;22.10;1.00
21646;DHT22;10984;45.712;4.800;2023-05-24T07:54:04;21.80;1.00
21646;DHT22;10984;45.712;4.800;2023-05-24T07:56:29;21.60;1.00
21646;DHT22;10984;45.712;4.800;2023-05-24T07:58:56;21.60;1.00
21646;DHT22;10984;45.712;4.800;2023-05-24T08:01:28;21.10;1.00
21646;DHT22;10984;45.712;4.800;2023-05-24T08:03:54;20.40;1.00
21646;DHT22;10984;45.712;4.800;2023-05-24T08:06:20;20.20;1.00
21646;DHT22;10984;45.712;4.800;2023-05-24T08:08:47;20.00;1.00
21646;DHT22;10984;45.712;4.800;2023-05-24T08:11:12;20.10;1.00
21646;DHT22;10984;45.712;4.800;2023-05-24T08:13:38;20.20;1.00
21646;DHT22;10984;45.712;4.800;2023-05-24T08:16:04;20.30;1.00
21646;DHT22;10984;45.712;4.800;2023-05-24T08:18:30;20.10;1.00
21646;DHT22;10984;45.712;4.800;2023-05-24T08:20:55;20.50;1.00
21646;DHT22;10984;45.712;4.800;2023-05-24T08:23:21;20.40;1.00
21646;DHT22;10984;45.712;4.800;2023-05-24T08:25:47;20.40;1.00
21646;DHT22;10984;45.712;4.800;2023-05-24T08:28:13;20.50;1.00
21646;DHT22;10984;45.712;4.800;2023-05-24T08:30:38;20.70;1.00
21646;DHT22;10984;45.712;4.800;2023-05-24T08:33:04;20.60;1.00
21646;DHT22;10984;45.712;4.800;2023-05-24T08:35:30;20.80;1.00
21646;DHT22;10984;45.712;4.800;2023-05-24T08:37:55;20.90;1.00
21646;DHT22;10984;45.712;4.800;2023-05-24T08:40:21;20.80;1.00
21646;DHT22;10984;45.712;4.800;2023-05-24T08:42:49;20.80;1.00
21646;DHT22;10984;45.712;4.800;2023-05-24T08:45:16;21.00;1.00
21646;DHT22;10984;45.712;4.800;2023-05-24T08:47:42;20.90;1.00
21646;DHT22;10984;45.712;4.800;2023-05-24T08:50:10;21.00;1.00
21646;DHT22;10984;45.712;4.800;2023-05-24T08:52:36;21.20;1.00
21646;DHT22;10984;45.712;4.800;2023-05-24T08:55:21;20.80;1.00
21646;DHT22;10984;45.712;4.800;2023-05-24T08:57:47;20.90;1.00
21646;DHT22;10984;45.712;4.800;2023-05-24T09:00:14;20.90;1.00
21646;DHT22;10984;45.712;4.800;2023-05-24T09:02:42;21.00;1.00
21646;DHT22;10984;45.712;4.800;2023-05-24T09:05:13;20.90;1.00
21646;DHT22;10984;45.712;4.800;2023-05-24T09:07:43;20.80;1.00
21646;DHT22;10984;45.712;4.800;2023-05-24T09:10:09;20.70;1.00
21646;DHT22;10984;45.712;4.800;2023-05-24T09:12:36;20.70;1.00
21646;DHT22;10984;45.712;4.800;2023-05-24T09:15:03;20.80;1.00
21646;DHT22;10984;45.712;4.800;2023-05-24T09:17:30;20.70;1.00
21646;DHT22;10984;45.712;4.800;2023-05-24T09:19:57;20.50;1.00
21646;DHT22;10984;45.712;4.800;2023-05-24T09:22:26;20.40;1.00
21646;DHT22;10984;45.712;4.800;2023-05-24T09:24:57;20.50;1.00
21646;DHT22;10984;45.712;4.800;2023-05-24T09:27:24;20.50;1.00
21646;DHT22;10984;45.712;4.800;2023-05-24T09:29:50;20.50;1.00
21646;DHT22;10984;45.712;4.800;2023-05-24T09:32:34;20.70;1.00
21646;DHT22;10984;45.712;4.800;2023-05-24T09:35:00;20.90;1.00
21646;DHT22;10984;45.712;4.800;2023-05-24T09:37:27;20.80;1.00
21646;DHT22;10984;45.712;4.800;2023-05-24T09:39:53;21.10;1.00
21646;DHT22;10984;45.712;4.800;2023-05-24T09:42:20;21.00;1.00
21646;DHT22;10984;45.712;4.800;2023-05-24T09:45:07;21.10;1.00
21646;DHT22;10984;45.712;4.800;2023-05-24T09:47:36;20.80;1.00
21646;DHT22;10984;45.712;4.800;2023-05-24T09:50:03;20.90;1.00
21646;DHT22;10984;45.712;4.800;2023-05-24T09:52:29;20.80;1.00
21646;DHT22;10984;45.712;4.800;2023-05-24T09:54:55;21.20;1.00
21646;DHT22;10984;45.712;4.800;2023-05-24T09:57:21;21.20;1.00
21646;DHT22;10984;45.712;4.800;2023-05-24T09:59:48;21.10;1.00
21646;DHT22;10984;45.712;4.800;2023-05-24T10:02:14;21.10;1.00
21646;DHT22;10984;45.712;4.800;2023-05-24T10:04:43;21.20;1.00
21646;DHT22;10984;45.712;4.800;2023-05-24T10:07:09;21.50;1.00
21646;DHT22;10984;45.712;4.800;2023-05-24T10:09:37;21.80;1.00
21646;DHT22;10984;45.712;4.800;2023-05-24T10:12:07;21.70;1.00
21646;DHT22;10984;45.712;4.800;2023-05-24T10:14:37;21.80;1.00
21646;DHT22;10984;45.712;4.800;2023-05-24T10:17:04;21.60;1.00
21646;DHT22;10984;45.712;4.800;2023-05-24T10:22:15;22.10;1.00
21646;DHT22;10984;45.712;4.800;2023-05-24T10:25:00;22.00;1.00
21646;DHT22;10984;45.712;4.800;2023-05-24T10:27:27;21.90;1.00
21646;DHT22;10984;45.712;4.800;2023-05-24T10:33:00;22.00;1.00
21646;DHT22;10984;45.712;4.800;2023-05-24T10:35:27;21.90;1.00
21646;DHT22;10984;45.712;4.800;2023-05-24T10:37:53;21.80;1.00
21646;DHT22;10984;45.712;4.800;2023-05-24T10:40:22;21.70;1.00
21646;DHT22;10984;45.712;4.800;2023-05-24T10:43:07;21.70;1.00
21646;DHT22;10984;45.712;4.800;2023-05-24T10:45:36;21.60;1.00
21646;DHT22;10984;45.712;4.800;2023-05-24T10:54:26;21.40;1.00
21646;DHT22;10984;45.712;4.800;2023-05-24T10:56:52;21.60;1.00
21646;DHT22;10984;45.712;4.800;2023-05-24T10:59:37;21.60;1.00
21646;DHT22;10984;45.712;4.800;2023-05-24T11:02:08;21.50;1.00
21646;DHT22;10984;45.712;4.800;2023-05-24T11:04:39;21.30;1.00
21646;DHT22;10984;45.712;4.800;2023-05-24T11:07:08;21.60;1.00
21646;DHT22;10984;45.712;4.800;2023-05-24T11:12:22;21.10;1.00
21646;DHT22;10984;45.712;4.800;2023-05-24T11:14:55;21.30;1.00
21646;DHT22;10984;45.712;4.800;2023-05-24T11:17:22;21.30;1.00
21646;DHT22;10984;45.712;4.800;2023-05-24T11:20:06;21.40;1.00
21646;DHT22;10984;45.712;4.800;2023-05-24T11:22:33;21.50;1.00
21646;DHT22;10984;45.712;4.800;2023-05-24T11:25:00;21.60;1.00
21646;DHT22;10984;45.712;4.800;2023-05-24T11:27:30;21.80;1.00
21646;DHT22;10984;45.712;4.800;2023-05-24T11:29:59;22.00;1.00
21646;DHT22;10984;45.712;4.800;2023-05-24T11:32:26;22.30;1.00
21646;DHT22;10984;45.712;4.800;2023-05-24T11:34:52;22.10;1.00
21646;DHT22;10984;45.712;4.800;2023-05-24T11:37:18;22.10;1.00
21646;DHT22;10984;45.712;4.800;2023-05-24T11:39:49;22.00;1.00
21646;DHT22;10984;45.712;4.800;2023-05-24T11:42:15;22.00;1.00
21646;DHT22;10984;45.712;4.800;2023-05-24T11:44:41;22.20;1.00
21646;DHT22;10984;45.712;4.800;2023-05-24T11:47:07;22.10;1.00
21646;DHT22;10984;45.712;4.800;2023-05-24T11:49:33;22.20;1.00
21646;DHT22;10984;45.712;4.800;2023-05-24T11:52:00;22.40;1.00
21646;DHT22;10984;45.712;4.800;2023-05-24T11:54:26;22.20;1.00
21646;DHT22;10984;45.712;4.800;2023-05-24T11:56:53;22.30;1.00
21646;DHT22;10984;45.712;4.800;2023-05-24T11:59:39;22.40;1.00
21646;DHT22;10984;45.712;4.800;2023-05-24T12:02:06;22.60;1.00
21646;DHT22;10984;45.712;4.800;2023-05-24T12:04:50;22.90;1.00
21646;DHT22;10984;45.712;4.800;2023-05-24T12:07:15;22.60;1.00
21646;DHT22;10984;45.712;4.800;2023-05-24T12:09:42;22.60;1.00
21646;DHT22;10984;45.712;4.800;2023-05-24T12:12:07;22.80;1.00
21646;DHT22;10984;45.712;4.800;2023-05-24T12:14:34;22.60;1.00
21646;DHT22;10984;45.712;4.800;2023-05-24T12:17:00;22.50;1.00
21646;DHT22;10984;45.712;4.800;2023-05-24T12:19:45;22.30;1.00
21646;DHT22;10984;45.712;4.800;2023-05-24T12:22:13;22.10;1.00
21646;DHT22;10984;45.712;4.800;2023-05-24T12:24:38;22.10;1.00
21646;DHT22;10984;45.712;4.800;2023-05-24T12:27:04;22.40;1.00
21646;DHT22;10984;45.712;4.800;2023-05-24T12:29:36;22.60;1.00
21646;DHT22;10984;45.712;4.800;2023-05-24T12:32:03;22.60;1.00
21646;DHT22;10984;45.712;4.800;2023-05-24T12:34:29;22.40;1.00
21646;DHT22;10984;45.712;4.800;2023-05-24T12:36:55;22.40;1.00
21646;DHT22;10984;45.712;4.800;2023-05-24T12:39:39;22.50;1.00
21646;DHT22;10984;45.712;4.800;2023-05-24T12:42:06;22.70;1.00
21646;DHT22;10984;45.712;4.800;2023-05-24T12:44:37;22.90;1.00
21646;DHT22;10984;45.712;4.800;2023-05-24T12:47:04;22.70;1.00
21646;DHT22;10984;45.712;4.800;2023-05-24T12:49:31;22.30;1.00
21646;DHT22;10984;45.712;4.800;2023-05-24T12:51:57;22.00;1.00
21646;DHT22;10984;45.712;4.800;2023-05-24T12:54:25;22.20;1.00
21646;DHT22;10984;45.712;4.800;2023-05-24T12:56:51;22.00;1.00
21646;DHT22;10984;45.712;4.800;2023-05-24T12:59:17;22.00;1.00
21646;DHT22;10984;45.712;4.800;2023-05-24T13:01:42;22.10;1.00
21646;DHT22;10984;45.712;4.800;2023-05-24T13:04:11;22.00;1.00
21646;DHT22;10984;45.712;4.800;2023-05-24T13:06:37;22.00;1.00
21646;DHT22;10984;45.712;4.800;2023-05-24T13:09:04;22.00;1.00
21646;DHT22;10984;45.712;4.800;2023-05-24T13:11:30;22.10;1.00
21646;DHT22;10984;45.712;4.800;2023-05-24T13:13:56;22.10;1.00
21646;DHT22;10984;45.712;4.800;2023-05-24T13:16:24;22.10;1.00
21646;DHT22;10984;45.712;4.800;2023-05-24T13:18:50;22.10;1.00
21646;DHT22;10984;45.712;4.800;2023-05-24T13:21:15;22.30;1.00
21646;DHT22;10984;45.712;4.800;2023-05-24T13:23:42;22.40;1.00
21646;DHT22;10984;45.712;4.800;2023-05-24T13:26:08;22.70;1.00
21646;DHT22;10984;45.712;4.800;2023-05-24T13:28:34;22.80;1.00
21646;DHT22;10984;45.712;4.800;2023-05-24T13:31:00;22.70;1.00
21646;DHT22;10984;45.712;4.800;2023-05-24T13:33:26;22.60;1.00
21646;DHT22;10984;45.712;4.800;2023-05-24T13:35:52;22.60;1.00
21646;DHT22;10984;45.712;4.800;2023-05-24T13:38:21;22.50;1.00
21646;DHT22;10984;45.712;4.800;2023-05-24T13:40:48;22.40;1.00
21646;DHT22;10984;45.712;4.800;2023-05-24T13:43:14;22.70;1.00
21646;DHT22;10984;45.712;4.800;2023-05-24T13:45:40;22.70;1.00
21646;DHT22;10984;45.712;4.800;2023-05-24T13:48:06;22.50;1.00
21646;DHT22;10984;45.712;4.800;2023-05-24T13:50:32;22.40;1.00
21646;DHT22;10984;45.712;4.800;2023-05-24T13:52:59;22.40;1.00
21646;DHT22;10984;45.712;4.800;2023-05-24T13:55:43;22.30;1.00
21646;DHT22;10984;45.712;4.800;2023-05-24T13:58:09;22.10;1.00
21646;DHT22;10984;45.712;4.800;2023-05-24T14:00:35;21.80;1.00
21646;DHT22;10984;45.712;4.800;2023-05-24T14:03:01;21.80;1.00
21646;DHT22;10984;45.712;4.800;2023-05-24T14:05:27;21.90;1.00
21646;DHT22;10984;45.712;4.800;2023-05-24T14:07:55;22.00;1.00
21646;DHT22;10984;45.712;4.800;2023-05-24T14:10:22;22.00;1.00
21646;DHT22;10984;45.712;4.800;2023-05-24T14:12:48;21.80;1.00
21646;DHT22;10984;45.712;4.800;2023-05-24T14:15:14;21.70;1.00
21646;DHT22;10984;45.712;4.800;2023-05-24T14:17:39;21.80;1.00
21646;DHT22;10984;45.712;4.800;2023-05-24T14:20:05;21.80;1.00
21646;DHT22;10984;45.712;4.800;2023-05-24T14:22:31;21.70;1.00
21646;DHT22;10984;45.712;4.800;2023-05-24T14:24:57;21.60;1.00
21646;DHT22;10984;45.712;4.800;2023-05-24T14:27:23;21.70;1.00
21646;DHT22;10984;45.712;4.800;2023-05-24T14:29:49;21.80;1.00
21646;DHT22;10984;45.712;4.800;2023-05-24T14:32:15;21.70;1.00
21646;DHT22;10984;45.712;4.800;2023-05-24T14:34:42;21.70;1.00
21646;DHT22;10984;45.712;4.800;2023-05-24T14:37:08;21.90;1.00
21646;DHT22;10984;45.712;4.800;2023-05-24T14:39:33;21.90;1.00
21646;DHT22;10984;45.712;4.800;2023-05-24T14:41:59;21.80;1.00
21646;DHT22;10984;45.712;4.800;2023-05-24T14:44:25;21.80;1.00
21646;DHT22;10984;45.712;4.800;2023-05-24T14:46:52;21.80;1.00
21646;DHT22;10984;45.712;4.800;2023-05-24T14:49:18;21.80;1.00
21646;DHT22;10984;45.712;4.800;2023-05-24T14:51:46;21.60;1.00
21646;DHT22;10984;45.712;4.800;2023-05-24T14:54:30;21.50;1.00
21646;DHT22;10984;45.712;4.800;2023-05-24T14:56:56;21.60;1.00
21646;DHT22;10984;45.712;4.800;2023-05-24T14:59:21;21.70;1.00
21646;DHT22;10984;45.712;4.800;2023-05-24T15:01:47;21.70;1.00
21646;DHT22;10984;45.712;4.800;2023-05-24T15:04:13;21.80;1.00
21646;DHT22;10984;45.712;4.800;2023-05-24T15:06:38;21.70;1.00
21646;DHT22;10984;45.712;4.800;2023-05-24T15:09:05;21.70;1.00
21646;DHT22;10984;45.712;4.800;2023-05-24T15:11:31;21.70;1.00
21646;DHT22;10984;45.712;4.800;2023-05-24T15:13:56;21.70;1.00
21646;DHT22;10984;45.712;4.800;2023-05-24T15:16:40;21.70;1.00
21646;DHT22;10984;45.712;4.800;2023-05-24T15:19:06;21.70;1.00
21646;DHT22;10984;45.712;4.800;2023-05-24T15:21:33;21.80;1.00
21646;DHT22;10984;45.712;4.800;2023-05-24T15:23:59;22.00;1.00
21646;DHT22;10984;45.712;4.800;2023-05-24T15:26:25;22.00;1.00
21646;DHT22;10984;45.712;4.800;2023-05-24T15:28:51;21.90;1.00
21646;DHT22;10984;45.712;4.800;2023-05-24T15:31:17;21.80;1.00
21646;DHT22;10984;45.712;4.800;2023-05-24T15:33:42;21.70;1.00
21646;DHT22;10984;45.712;4.800;2023-05-24T15:36:08;21.60;1.00
21646;DHT22;10984;45.712;4.800;2023-05-24T15:38:35;21.60;1.00
21646;DHT22;10984;45.712;4.800;2023-05-24T15:41:03;21.50;1.00
21646;DHT22;10984;45.712;4.800;2023-05-24T15:43:28;21.20;1.00
21646;DHT22;10984;45.712;4.800;2023-05-24T15:45:54;21.00;1.00
21646;DHT22;10984;45.712;4.800;2023-05-24T15:48:20;20.90;1.00
21646;DHT22;10984;45.712;4.800;2023-05-24T15:50:46;20.80;1.00
21646;DHT22;10984;45.712;4.800;2023-05-24T15:53:12;20.70;1.00
21646;DHT22;10984;45.712;4.800;2023-05-24T15:55:38;20.80;1.00
21646;DHT22;10984;45.712;4.800;2023-05-24T15:58:04;20.80;1.00
21646;DHT22;10984;45.712;4.800;2023-05-24T16:00:29;20.90;1.00
21646;DHT22;10984;45.712;4.800;2023-05-24T16:02:55;21.10;1.00
21646;DHT22;10984;45.712;4.800;2023-05-24T16:05:22;21.10;1.00
21646;DHT22;10984;45.712;4.800;2023-05-24T16:07:48;21.10;1.00
21646;DHT22;10984;45.712;4.800;2023-05-24T16:10:13;21.00;1.00
21646;DHT22;10984;45.712;4.800;2023-05-24T16:12:39;20.90;1.00
21646;DHT22;10984;45.712;4.800;2023-05-24T16:15:05;20.90;1.00
21646;DHT22;10984;45.712;4.800;2023-05-24T16:17:31;20.90;1.00
21646;DHT22;10984;45.712;4.800;2023-05-24T16:19:57;20.90;1.00
21646;DHT22;10984;45.712;4.800;2023-05-24T16:22:23;20.90;1.00
21646;DHT22;10984;45.712;4.800;2023-05-24T16:24:49;21.00;1.00
21646;DHT22;10984;45.712;4.800;2023-05-24T16:27:15;20.90;1.00